Terminal Aerodrome Forecast
Issued by NWS Twin Cities, MN

Home | Current Version | Previous Version | Graphics & Text | Print | Product List | Glossary On
Versions: 1 2 3 4 5 6 7 8 9 10 11 12 13 14 15 16 17 18 19 20 21 22 23 24 25 26 27
000
FTUS43 KMPX 210200 AAA
TAFMSP
TAF AMD
KMSP 210253Z 2103/2206 25008KT P6SM SKC
     FM210600 29010KT P6SM SCT060
     FM211300 33013G20KT P6SM BKN030
     FM211700 33012KT P6SM BKN045=

USA.gov is the U.S. government's official web portal to all federal, state and local government web resources and services.